sensor_id;sensor_type;location;lat;lon;timestamp;pressure;altitude;pressure_sealevel;temperature;humidity
42297;BME280;72430;47.456;19.016;2023-09-07T12:44:00;100976.53;;;24.84;51.83
42297;BME280;72430;47.456;19.016;2023-09-07T12:50:16;100962.91;;;25.03;51.29
42297;BME280;72430;47.456;19.016;2023-09-07T12:53:18;100960.81;;;24.98;51.45
42297;BME280;72430;47.456;19.016;2023-09-07T12:56:21;100966.31;;;24.98;51.40
42297;BME280;72430;47.456;19.016;2023-09-07T12:59:23;100969.72;;;25.00;51.75
42297;BME280;72430;47.456;19.016;2023-09-07T13:02:27;100960.38;;;25.01;51.12
42297;BME280;72430;47.456;19.016;2023-09-07T13:05:29;100951.91;;;25.03;50.74
42297;BME280;72430;47.456;19.016;2023-09-07T13:08:31;100945.06;;;25.05;50.46
42297;BME280;72430;47.456;19.016;2023-09-07T13:12:59;100949.94;;;25.10;50.71
42297;BME280;72430;47.456;19.016;2023-09-07T13:16:01;100945.50;;;25.09;51.16
42297;BME280;72430;47.456;19.016;2023-09-07T13:19:02;100952.31;;;25.06;51.15
42297;BME280;72430;47.456;19.016;2023-09-07T13:22:04;100954.19;;;25.06;51.04
42297;BME280;72430;47.456;19.016;2023-09-07T13:25:07;100941.47;;;25.12;50.71
42297;BME280;72430;47.456;19.016;2023-09-07T13:28:09;100948.34;;;25.60;49.60
42297;BME280;72430;47.456;19.016;2023-09-07T13:31:10;100946.75;;;28.18;44.04
42297;BME280;72430;47.456;19.016;2023-09-07T13:34:12;100938.25;;;31.93;36.65
42297;BME280;72430;47.456;19.016;2023-09-07T13:37:13;100943.25;;;33.50;32.82
42297;BME280;72430;47.456;19.016;2023-09-07T13:40:15;100939.34;;;33.93;32.22
42297;BME280;72430;47.456;19.016;2023-09-07T13:43:16;100936.53;;;33.98;31.88
42297;BME280;72430;47.456;19.016;2023-09-07T13:46:18;100940.69;;;34.21;32.03
42297;BME280;72430;47.456;19.016;2023-09-07T13:49:20;100933.16;;;34.22;31.80
42297;BME280;72430;47.456;19.016;2023-09-07T13:52:21;100927.06;;;33.78;32.20
42297;BME280;72430;47.456;19.016;2023-09-07T13:55:23;100936.31;;;33.53;32.41
42297;BME280;72430;47.456;19.016;2023-09-07T13:58:26;100933.69;;;32.89;33.02
42297;BME280;72430;47.456;19.016;2023-09-07T14:01:28;100924.34;;;32.47;33.83
42297;BME280;72430;47.456;19.016;2023-09-07T14:04:30;100928.97;;;29.88;38.05
42297;BME280;72430;47.456;19.016;2023-09-07T14:07:32;100939.59;;;26.89;44.62
42297;BME280;72430;47.456;19.016;2023-09-07T14:10:33;100937.59;;;26.03;47.29
42297;BME280;72430;47.456;19.016;2023-09-07T14:13:35;100922.81;;;25.71;48.34
42297;BME280;72430;47.456;19.016;2023-09-07T14:16:37;100923.63;;;25.53;49.04
42297;BME280;72430;47.456;19.016;2023-09-07T14:19:38;100925.50;;;25.53;49.90
42297;BME280;72430;47.456;19.016;2023-09-07T14:22:40;100912.13;;;25.50;49.98
42297;BME280;72430;47.456;19.016;2023-09-07T14:25:42;100919.41;;;25.44;50.47
42297;BME280;72430;47.456;19.016;2023-09-07T14:28:46;100914.13;;;25.42;50.55
42297;BME280;72430;47.456;19.016;2023-09-07T14:31:47;100917.56;;;25.38;50.96
42297;BME280;72430;47.456;19.016;2023-09-07T14:34:49;100915.00;;;25.36;50.93
42297;BME280;72430;47.456;19.016;2023-09-07T14:37:50;100913.09;;;25.37;50.88
42297;BME280;72430;47.456;19.016;2023-09-07T14:40:54;100916.31;;;25.66;50.69
42297;BME280;72430;47.456;19.016;2023-09-07T14:43:56;100913.56;;;25.66;50.35
42297;BME280;72430;47.456;19.016;2023-09-07T14:46:58;100915.22;;;25.67;50.54
42297;BME280;72430;47.456;19.016;2023-09-07T15:11:51;100910.06;;;25.77;50.98
42297;BME280;72430;47.456;19.016;2023-09-07T15:14:54;100917.38;;;25.65;51.18
42297;BME280;72430;47.456;19.016;2023-09-07T15:17:56;100906.41;;;25.58;50.86
42297;BME280;72430;47.456;19.016;2023-09-07T15:20:58;100899.41;;;25.55;51.24
42297;BME280;72430;47.456;19.016;2023-09-07T15:24:00;100903.25;;;25.54;50.29
42297;BME280;72430;47.456;19.016;2023-09-07T15:27:10;100899.41;;;25.55;50.35
42297;BME280;72430;47.456;19.016;2023-09-07T15:30:13;100893.47;;;25.52;50.86
42297;BME280;72430;47.456;19.016;2023-09-07T15:33:15;100897.31;;;25.51;49.93
42297;BME280;72430;47.456;19.016;2023-09-07T15:36:17;100893.53;;;25.45;50.09
42297;BME280;72430;47.456;19.016;2023-09-07T15:39:18;100893.53;;;26.14;49.86
42297;BME280;72430;47.456;19.016;2023-09-07T15:42:20;100895.53;;;26.07;48.66
42297;BME280;72430;47.456;19.016;2023-09-07T15:45:22;100884.50;;;27.37;45.82
42297;BME280;72430;47.456;19.016;2023-09-07T15:48:27;100889.81;;;27.38;44.56
42297;BME280;72430;47.456;19.016;2023-09-07T15:53:02;100915.81;;;26.88;44.75
42297;BME280;72430;47.456;19.016;2023-09-07T15:56:04;100906.41;;;26.77;44.89
42297;BME280;72430;47.456;19.016;2023-09-07T15:59:06;100914.56;;;26.72;45.02
42297;BME280;72430;47.456;19.016;2023-09-07T16:02:08;100908.00;;;26.54;45.69
42297;BME280;72430;47.456;19.016;2023-09-07T16:05:10;100912.28;;;26.50;45.19
42297;BME280;72430;47.456;19.016;2023-09-07T16:08:12;100911.03;;;26.46;45.22
42297;BME280;72430;47.456;19.016;2023-09-07T16:11:14;100908.38;;;26.39;45.25
42297;BME280;72430;47.456;19.016;2023-09-07T16:14:16;100911.38;;;26.37;45.58
42297;BME280;72430;47.456;19.016;2023-09-07T16:17:18;100907.00;;;26.30;45.09
42297;BME280;72430;47.456;19.016;2023-09-07T16:20:20;100916.13;;;26.30;44.92
42297;BME280;72430;47.456;19.016;2023-09-07T16:23:22;100913.44;;;26.23;45.25
42297;BME280;72430;47.456;19.016;2023-09-07T16:26:25;100911.94;;;26.21;45.37
42297;BME280;72430;47.456;19.016;2023-09-07T16:29:27;100914.91;;;26.19;45.16
42297;BME280;72430;47.456;19.016;2023-09-07T16:33:50;100904.88;;;28.02;33.83
42297;BME280;72430;47.456;19.016;2023-09-07T16:36:52;100911.81;;;28.81;31.22
42297;BME280;72430;47.456;19.016;2023-09-07T16:39:54;100910.59;;;29.18;29.60
42297;BME280;72430;47.456;19.016;2023-09-07T16:42:56;100916.25;;;29.41;31.04
42297;BME280;72430;47.456;19.016;2023-09-07T16:46:02;100915.91;;;29.37;31.04
42297;BME280;72430;47.456;19.016;2023-09-07T16:49:07;100915.06;;;29.19;30.07
42297;BME280;72430;47.456;19.016;2023-09-07T16:52:09;100916.06;;;29.13;31.82
42297;BME280;72430;47.456;19.016;2023-09-07T16:55:11;100916.91;;;28.73;32.50
42297;BME280;72430;47.456;19.016;2023-09-07T16:58:13;100925.81;;;28.75;32.16
42297;BME280;72430;47.456;19.016;2023-09-07T17:01:16;100922.19;;;28.21;34.90
42297;BME280;72430;47.456;19.016;2023-09-07T17:04:25;100923.44;;;28.25;34.42
42297;BME280;72430;47.456;19.016;2023-09-07T17:07:27;100924.72;;;28.35;34.89
42297;BME280;72430;47.456;19.016;2023-09-07T17:10:29;100926.78;;;27.92;34.41
42297;BME280;72430;47.456;19.016;2023-09-07T17:13:31;100926.53;;;27.69;35.05
42297;BME280;72430;47.456;19.016;2023-09-07T17:16:34;100938.19;;;27.17;37.01
42297;BME280;72430;47.456;19.016;2023-09-07T17:19:36;100941.13;;;27.03;36.59
42297;BME280;72430;47.456;19.016;2023-09-07T17:22:38;100940.09;;;26.48;38.58
42297;BME280;72430;47.456;19.016;2023-09-07T17:25:40;100938.09;;;25.93;41.88
42297;BME280;72430;47.456;19.016;2023-09-07T17:28:41;100950.16;;;25.73;43.00
42297;BME280;72430;47.456;19.016;2023-09-07T17:31:43;100949.59;;;25.90;43.22
42297;BME280;72430;47.456;19.016;2023-09-07T17:34:45;100955.25;;;25.44;43.52
42297;BME280;72430;47.456;19.016;2023-09-07T17:37:47;100959.28;;;25.41;44.84
42297;BME280;72430;47.456;19.016;2023-09-07T17:40:49;100958.63;;;25.07;45.57
42297;BME280;72430;47.456;19.016;2023-09-07T17:43:50;100964.13;;;24.61;48.10
42297;BME280;72430;47.456;19.016;2023-09-07T17:46:52;100969.56;;;24.82;46.98
42297;BME280;72430;47.456;19.016;2023-09-07T17:49:54;100971.59;;;24.40;48.83
42297;BME280;72430;47.456;19.016;2023-09-07T17:52:56;100968.88;;;23.80;50.19
42297;BME280;72430;47.456;19.016;2023-09-07T17:55:58;100973.34;;;24.08;48.76
42297;BME280;72430;47.456;19.016;2023-09-07T17:58:59;100977.13;;;23.66;49.72
42297;BME280;72430;47.456;19.016;2023-09-07T18:02:01;100981.97;;;23.44;50.56
42297;BME280;72430;47.456;19.016;2023-09-07T18:05:03;100981.88;;;23.30;51.31
42297;BME280;72430;47.456;19.016;2023-09-07T18:08:05;100991.41;;;22.79;53.81
42297;BME280;72430;47.456;19.016;2023-09-07T18:11:07;100987.06;;;22.98;53.85
42297;BME280;72430;47.456;19.016;2023-09-07T18:14:12;100989.00;;;22.56;54.19
42297;BME280;72430;47.456;19.016;2023-09-07T18:17:14;100997.50;;;22.39;55.96
42297;BME280;72430;47.456;19.016;2023-09-07T18:20:16;100996.44;;;22.40;54.83
42297;BME280;72430;47.456;19.016;2023-09-07T18:23:20;100998.28;;;22.55;55.43
42297;BME280;72430;47.456;19.016;2023-09-07T18:26:25;100997.47;;;22.04;56.20
42297;BME280;72430;47.456;19.016;2023-09-07T18:29:27;100995.72;;;21.96;56.97
42297;BME280;72430;47.456;19.016;2023-09-07T18:32:29;101000.41;;;21.80;56.73
42297;BME280;72430;47.456;19.016;2023-09-07T18:35:31;100997.94;;;21.64;57.42
42297;BME280;72430;47.456;19.016;2023-09-07T18:38:33;100997.91;;;21.79;57.02
42297;BME280;72430;47.456;19.016;2023-09-07T18:41:36;100996.44;;;21.61;57.12
42297;BME280;72430;47.456;19.016;2023-09-07T18:44:38;100998.78;;;21.42;58.35
42297;BME280;72430;47.456;19.016;2023-09-07T18:47:40;101009.94;;;21.41;57.81
42297;BME280;72430;47.456;19.016;2023-09-07T18:50:42;101002.81;;;21.25;59.28
42297;BME280;72430;47.456;19.016;2023-09-07T18:53:43;101006.53;;;21.02;60.42
42297;BME280;72430;47.456;19.016;2023-09-07T18:56:45;101011.44;;;20.76;60.57
42297;BME280;72430;47.456;19.016;2023-09-07T18:59:47;101011.03;;;20.79;59.97
42297;BME280;72430;47.456;19.016;2023-09-07T19:02:51;101005.03;;;20.69;60.69
42297;BME280;72430;47.456;19.016;2023-09-07T19:05:53;101014.34;;;20.75;60.41
42297;BME280;72430;47.456;19.016;2023-09-07T19:08:55;101016.91;;;20.46;61.37
42297;BME280;72430;47.456;19.016;2023-09-07T19:11:57;101025.47;;;20.43;61.80
42297;BME280;72430;47.456;19.016;2023-09-07T19:14:59;101014.03;;;20.24;62.69
42297;BME280;72430;47.456;19.016;2023-09-07T19:18:01;101024.09;;;20.09;63.88
42297;BME280;72430;47.456;19.016;2023-09-07T19:21:03;101019.34;;;20.26;61.97
42297;BME280;72430;47.456;19.016;2023-09-07T19:24:23;101016.94;;;19.84;63.43
42297;BME280;72430;47.456;19.016;2023-09-07T19:27:25;101016.28;;;19.59;65.44
42297;BME280;72430;47.456;19.016;2023-09-07T19:30:27;101007.94;;;19.52;67.03
42297;BME280;72430;47.456;19.016;2023-09-07T19:33:29;101019.81;;;19.44;68.19
42297;BME280;72430;47.456;19.016;2023-09-07T19:36:31;101010.81;;;19.59;67.66
42297;BME280;72430;47.456;19.016;2023-09-07T19:39:33;101019.13;;;19.42;68.04
42297;BME280;72430;47.456;19.016;2023-09-07T19:42:35;101009.75;;;19.68;66.15
42297;BME280;72430;47.456;19.016;2023-09-07T19:45:37;101013.72;;;19.34;66.52
42297;BME280;72430;47.456;19.016;2023-09-07T19:48:39;101006.66;;;19.40;66.39
42297;BME280;72430;47.456;19.016;2023-09-07T19:51:41;101005.50;;;19.02;67.88
42297;BME280;72430;47.456;19.016;2023-09-07T19:54:47;101006.44;;;19.26;68.54
42297;BME280;72430;47.456;19.016;2023-09-07T19:57:49;101014.25;;;18.89;69.46
42297;BME280;72430;47.456;19.016;2023-09-07T20:00:51;101015.41;;;19.03;68.71
42297;BME280;72430;47.456;19.016;2023-09-07T20:03:53;101011.94;;;18.70;70.00
42297;BME280;72430;47.456;19.016;2023-09-07T20:06:56;101023.84;;;18.77;69.90
42297;BME280;72430;47.456;19.016;2023-09-07T20:09:58;101020.78;;;18.72;69.30
42297;BME280;72430;47.456;19.016;2023-09-07T20:13:00;101024.63;;;18.37;70.65
42297;BME280;72430;47.456;19.016;2023-09-07T20:16:02;101023.06;;;18.51;70.62
42297;BME280;72430;47.456;19.016;2023-09-07T20:19:05;101017.94;;;18.57;70.55
42297;BME280;72430;47.456;19.016;2023-09-07T20:22:07;101016.94;;;18.49;71.82
42297;BME280;72430;47.456;19.016;2023-09-07T20:25:09;101021.56;;;18.41;71.51
42297;BME280;72430;47.456;19.016;2023-09-07T20:28:11;101026.50;;;18.37;72.56
42297;BME280;72430;47.456;19.016;2023-09-07T20:31:15;101027.22;;;18.14;74.61
42297;BME280;72430;47.456;19.016;2023-09-07T20:34:17;101027.91;;;18.08;73.90
42297;BME280;72430;47.456;19.016;2023-09-07T20:37:19;101024.81;;;18.28;72.11
42297;BME280;72430;47.456;19.016;2023-09-07T20:40:21;101032.31;;;18.01;73.56
42297;BME280;72430;47.456;19.016;2023-09-07T20:43:23;101029.94;;;18.22;72.70
42297;BME280;72430;47.456;19.016;2023-09-07T20:46:25;101025.16;;;18.16;73.01
42297;BME280;72430;47.456;19.016;2023-09-07T20:49:27;101027.19;;;17.89;74.32
42297;BME280;72430;47.456;19.016;2023-09-07T20:52:28;101027.91;;;18.08;73.68
42297;BME280;72430;47.456;19.016;2023-09-07T20:55:30;101031.47;;;17.92;74.40
42297;BME280;72430;47.456;19.016;2023-09-07T20:58:33;101023.78;;;17.95;74.12
42297;BME280;72430;47.456;19.016;2023-09-07T21:01:35;101018.34;;;18.04;72.71
42297;BME280;72430;47.456;19.016;2023-09-07T21:04:38;101019.88;;;17.81;74.59
42297;BME280;72430;47.456;19.016;2023-09-07T21:07:39;101014.25;;;17.75;74.20
42297;BME280;72430;47.456;19.016;2023-09-07T21:10:42;101015.28;;;17.82;74.34
42297;BME280;72430;47.456;19.016;2023-09-07T21:13:45;101016.13;;;17.82;73.99
42297;BME280;72430;47.456;19.016;2023-09-07T21:16:48;101028.38;;;17.78;74.07
42297;BME280;72430;47.456;19.016;2023-09-07T21:19:50;101014.25;;;17.66;75.15
42297;BME280;72430;47.456;19.016;2023-09-07T21:22:52;101018.50;;;17.77;73.07
42297;BME280;72430;47.456;19.016;2023-09-07T21:25:54;101009.66;;;17.58;74.52
42297;BME280;72430;47.456;19.016;2023-09-07T21:28:56;101011.84;;;17.63;75.74
42297;BME280;72430;47.456;19.016;2023-09-07T21:31:57;101012.53;;;17.49;76.20
42297;BME280;72430;47.456;19.016;2023-09-07T21:34:59;101012.16;;;17.35;77.29
42297;BME280;72430;47.456;19.016;2023-09-07T21:38:01;101004.00;;;17.43;75.42
42297;BME280;72430;47.456;19.016;2023-09-07T21:41:03;101013.00;;;17.36;76.05
42297;BME280;72430;47.456;19.016;2023-09-07T21:44:05;101008.44;;;17.36;76.03
42297;BME280;72430;47.456;19.016;2023-09-07T21:47:07;101003.50;;;17.40;76.32
42297;BME280;72430;47.456;19.016;2023-09-07T21:50:11;101014.69;;;17.28;76.25
42297;BME280;72430;47.456;19.016;2023-09-07T21:53:13;101001.63;;;17.49;75.55
42297;BME280;72430;47.456;19.016;2023-09-07T21:56:15;101000.06;;;17.21;77.59
42297;BME280;72430;47.456;19.016;2023-09-07T21:59:16;101006.38;;;17.38;76.67
42297;BME280;72430;47.456;19.016;2023-09-07T22:02:20;101002.78;;;17.21;77.54
42297;BME280;72430;47.456;19.016;2023-09-07T22:05:22;101007.88;;;16.81;79.48
42297;BME280;72430;47.456;19.016;2023-09-07T22:08:24;101009.19;;;17.03;78.20
42297;BME280;72430;47.456;19.016;2023-09-07T22:11:26;101004.00;;;16.92;78.42
42297;BME280;72430;47.456;19.016;2023-09-07T22:14:28;101007.09;;;16.97;78.27
42297;BME280;72430;47.456;19.016;2023-09-07T22:17:30;101007.91;;;16.89;79.29
42297;BME280;72430;47.456;19.016;2023-09-07T22:20:32;101012.47;;;16.81;80.27
42297;BME280;72430;47.456;19.016;2023-09-07T22:23:34;101012.00;;;16.59;79.92
42297;BME280;72430;47.456;19.016;2023-09-07T22:26:44;101024.22;;;16.55;81.94
42297;BME280;72430;47.456;19.016;2023-09-07T22:29:46;101009.09;;;16.95;77.88
42297;BME280;72430;47.456;19.016;2023-09-07T22:32:48;101016.13;;;16.63;79.36
42297;BME280;72430;47.456;19.016;2023-09-07T22:35:51;101007.13;;;16.36;81.23
42297;BME280;72430;47.456;19.016;2023-09-07T22:38:54;101011.50;;;16.29;81.91
42297;BME280;72430;47.456;19.016;2023-09-07T22:41:57;101013.97;;;16.22;81.66
42297;BME280;72430;47.456;19.016;2023-09-07T22:44:59;101019.41;;;16.48;80.83
42297;BME280;72430;47.456;19.016;2023-09-07T22:48:01;101016.66;;;16.14;81.81
42297;BME280;72430;47.456;19.016;2023-09-07T22:51:04;101013.97;;;16.22;81.79
42297;BME280;72430;47.456;19.016;2023-09-07T22:54:06;101017.56;;;16.22;81.79
42297;BME280;72430;47.456;19.016;2023-09-07T22:57:08;101012.09;;;15.96;83.46
42297;BME280;72430;47.456;19.016;2023-09-07T23:00:10;101012.16;;;16.04;83.11
42297;BME280;72430;47.456;19.016;2023-09-07T23:03:13;101025.44;;;16.34;81.26
42297;BME280;72430;47.456;19.016;2023-09-07T23:06:15;101015.97;;;16.12;82.08
42297;BME280;72430;47.456;19.016;2023-09-07T23:09:18;101024.38;;;16.00;83.19
42297;BME280;72430;47.456;19.016;2023-09-07T23:12:22;101015.75;;;16.05;83.18
42297;BME280;72430;47.456;19.016;2023-09-07T23:15:25;101011.00;;;15.89;83.23
42297;BME280;72430;47.456;19.016;2023-09-07T23:18:27;101013.16;;;16.21;80.90
42297;BME280;72430;47.456;19.016;2023-09-07T23:21:29;101009.13;;;15.89;82.53
42297;BME280;72430;47.456;19.016;2023-09-07T23:24:31;101009.94;;;15.81;82.91
42297;BME280;72430;47.456;19.016;2023-09-07T23:27:33;101003.97;;;15.60;85.44
42297;BME280;72430;47.456;19.016;2023-09-07T23:30:35;101010.94;;;15.62;83.75
42297;BME280;72430;47.456;19.016;2023-09-07T23:33:39;101009.38;;;15.60;83.31
42297;BME280;72430;47.456;19.016;2023-09-07T23:36:41;101016.28;;;15.54;84.65
42297;BME280;72430;47.456;19.016;2023-09-07T23:39:43;101011.41;;;15.57;83.47
42297;BME280;72430;47.456;19.016;2023-09-07T23:42:45;101008.75;;;15.66;82.38
42297;BME280;72430;47.456;19.016;2023-09-07T23:45:47;101012.19;;;15.50;82.88
42297;BME280;72430;47.456;19.016;2023-09-07T23:48:48;101008.97;;;15.36;83.85
42297;BME280;72430;47.456;19.016;2023-09-07T23:51:50;101007.06;;;15.47;83.99
42297;BME280;72430;47.456;19.016;2023-09-07T23:54:52;101010.78;;;15.46;84.46
42297;BME280;72430;47.456;19.016;2023-09-07T23:57:54;101000.47;;;15.31;84.25
